createdAt,value
2023-01-08T00:01:53.810Z,100.00
2023-01-08T00:04:23.598Z,100.00
2023-01-08T00:06:53.368Z,100.00
2023-01-08T00:09:23.161Z,100.00
2023-01-08T00:11:52.942Z,100.00
2023-01-08T00:14:25.397Z,99.89
2023-01-08T00:16:55.141Z,99.91
2023-01-08T00:19:25.325Z,99.77
2023-01-08T00:21:55.215Z,99.62
2023-01-08T00:24:24.995Z,99.37
2023-01-08T00:26:54.934Z,99.32
2023-01-08T00:29:27.284Z,99.18
2023-01-08T00:31:57.083Z,99.39
2023-01-08T00:34:26.813Z,99.28
2023-01-08T00:36:56.605Z,98.92
2023-01-08T00:39:26.475Z,98.91
2023-01-08T00:41:56.234Z,99.09
2023-01-08T00:44:28.560Z,99.03
2023-01-08T00:46:58.294Z,98.98
2023-01-08T00:49:28.054Z,99.19
2023-01-08T00:51:57.806Z,99.17
2023-01-08T00:54:27.645Z,99.10
2023-01-08T00:56:58.244Z,99.23
2023-01-08T00:59:30.893Z,99.24
2023-01-08T01:02:00.974Z,99.30
2023-01-08T01:04:31.009Z,99.43
2023-01-08T01:07:00.974Z,99.38
2023-01-08T01:09:30.927Z,99.26
2023-01-08T01:12:00.687Z,99.37
2023-01-08T01:14:33.196Z,99.37
2023-01-08T01:17:03.074Z,99.16
2023-01-08T01:19:33.296Z,99.61
2023-01-08T01:22:03.252Z,99.51
2023-01-08T01:24:35.737Z,99.29
2023-01-08T01:27:05.520Z,99.36
2023-01-08T01:29:37.935Z,99.17
2023-01-08T01:32:08.396Z,99.40
2023-01-08T01:34:38.356Z,99.23
2023-01-08T01:37:08.143Z,99.25
2023-01-08T01:39:37.885Z,99.36
2023-01-08T01:42:27.650Z,99.34
2023-01-08T01:45:00.112Z,99.34
2023-01-08T01:47:33.688Z,99.24
2023-01-08T01:50:07.632Z,99.04
2023-01-08T01:52:40.186Z,99.30
2023-01-08T01:55:13.169Z,99.35
2023-01-08T01:57:44.963Z,99.19
2023-01-08T02:00:18.623Z,99.23
2023-01-08T02:02:48.599Z,99.40
2023-01-08T02:05:18.469Z,99.29
2023-01-08T02:07:58.753Z,99.24
2023-01-08T02:10:38.502Z,99.44
2023-01-08T02:13:15.909Z,99.58
2023-01-08T02:15:54.793Z,99.35
2023-01-08T02:18:31.964Z,99.67
2023-01-08T02:21:08.452Z,99.61
2023-01-08T02:23:47.426Z,99.86
2023-01-08T02:26:25.147Z,99.69
2023-01-08T02:29:00.540Z,100.00
2023-01-08T02:31:32.723Z,100.00
2023-01-08T02:34:02.908Z,100.00
2023-01-08T02:36:39.773Z,100.00
2023-01-08T02:39:33.346Z,100.00
2023-01-08T02:42:14.072Z,100.00
2023-01-08T02:44:53.900Z,100.00
2023-01-08T02:47:29.098Z,100.00
2023-01-08T02:50:06.713Z,100.00
2023-01-08T02:52:41.591Z,100.00
2023-01-08T02:55:14.082Z,100.00
2023-01-08T02:57:46.840Z,100.00
2023-01-08T03:00:18.284Z,100.00
2023-01-08T03:02:50.618Z,100.00
2023-01-08T03:05:26.889Z,100.00
2023-01-08T03:07:58.567Z,100.00
2023-01-08T03:10:31.544Z,100.00
2023-01-08T03:13:07.605Z,100.00
2023-01-08T03:15:44.083Z,100.00
2023-01-08T03:18:18.718Z,100.00
2023-01-08T03:20:50.686Z,100.00
2023-01-08T03:23:22.598Z,100.00
2023-01-08T03:25:52.622Z,100.00
2023-01-08T03:28:30.600Z,99.83
2023-01-08T03:31:02.130Z,99.88
2023-01-08T03:33:34.723Z,99.91
2023-01-08T03:36:08.013Z,100.00
2023-01-08T03:38:43.491Z,100.00
2023-01-08T03:41:16.612Z,100.00
2023-01-08T03:43:49.187Z,100.00
2023-01-08T03:46:23.624Z,100.00
2023-01-08T03:48:54.830Z,100.00
2023-01-08T03:51:24.666Z,100.00
2023-01-08T03:53:58.542Z,100.00
2023-01-08T03:56:28.778Z,100.00
2023-01-08T03:59:01.182Z,100.00
2023-01-08T04:01:31.011Z,100.00
2023-01-08T04:04:01.063Z,100.00
2023-01-08T04:06:30.905Z,100.00
2023-01-08T04:09:00.730Z,100.00
2023-01-08T04:11:30.935Z,100.00
2023-01-08T04:14:03.396Z,100.00
2023-01-08T04:16:34.799Z,100.00
2023-01-08T04:19:04.692Z,100.00
2023-01-08T04:21:34.517Z,100.00
2023-01-08T04:24:04.236Z,100.00
2023-01-08T04:26:34.283Z,100.00
2023-01-08T04:29:08.452Z,100.00
2023-01-08T04:31:38.643Z,100.00
2023-01-08T04:34:08.413Z,100.00
2023-01-08T04:36:38.258Z,100.00
2023-01-08T04:39:08.573Z,100.00
2023-01-08T04:41:38.361Z,100.00
2023-01-08T04:44:11.559Z,100.00
2023-01-08T04:46:41.382Z,100.00
2023-01-08T04:49:11.188Z,100.00
2023-01-08T04:51:41.117Z,100.00
2023-01-08T04:54:10.915Z,100.00
2023-01-08T04:56:40.668Z,100.00
2023-01-08T04:59:16.173Z,100.00
2023-01-08T05:01:46.466Z,100.00
2023-01-08T05:04:16.339Z,100.00
2023-01-08T05:06:46.086Z,100.00
2023-01-08T05:09:15.882Z,100.00
2023-01-08T05:11:46.040Z,100.00
2023-01-08T05:14:18.490Z,100.00
2023-01-08T05:16:48.534Z,100.00
2023-01-08T05:19:18.936Z,100.00
2023-01-08T05:21:48.752Z,100.00
2023-01-08T05:24:18.858Z,100.00
2023-01-08T05:26:48.607Z,100.00
2023-01-08T05:29:20.928Z,100.00
2023-01-08T05:31:50.677Z,100.00
2023-01-08T05:34:20.442Z,100.00
2023-01-08T05:36:50.228Z,100.00
2023-01-08T05:39:20.260Z,100.00
2023-01-08T05:41:50.072Z,100.00
2023-01-08T05:44:22.442Z,100.00
2023-01-08T05:46:52.179Z,100.00
2023-01-08T05:49:22.054Z,100.00
2023-01-08T05:51:51.819Z,100.00
2023-01-08T05:54:21.648Z,100.00
2023-01-08T05:56:51.420Z,100.00
2023-01-08T05:59:23.929Z,100.00
2023-01-08T06:01:53.723Z,100.00
2023-01-08T06:04:23.581Z,100.00
2023-01-08T06:06:53.400Z,100.00
2023-01-08T06:09:23.333Z,100.00
2023-01-08T06:11:53.238Z,100.00
2023-01-08T06:14:25.917Z,100.00
2023-01-08T06:16:55.785Z,100.00
2023-01-08T06:19:25.523Z,100.00
2023-01-08T06:21:55.225Z,99.81
2023-01-08T06:24:25.036Z,99.78
2023-01-08T06:26:54.787Z,99.63
2023-01-08T06:29:27.473Z,99.13
2023-01-08T06:31:57.240Z,99.11
2023-01-08T06:34:27.020Z,98.54
2023-01-08T06:36:57.008Z,98.12
2023-01-08T06:39:26.781Z,98.42
2023-01-08T06:41:56.603Z,98.87
2023-01-08T06:44:29.247Z,98.60
2023-01-08T06:46:59.133Z,98.84
2023-01-08T06:49:28.868Z,99.12
2023-01-08T06:51:58.618Z,99.30
2023-01-08T06:54:28.430Z,98.85
2023-01-08T06:56:58.234Z,98.35
2023-01-08T06:59:30.872Z,98.10
2023-01-08T07:02:00.858Z,98.74
2023-01-08T07:04:30.936Z,98.24
2023-01-08T07:07:00.975Z,98.03
2023-01-08T07:09:30.810Z,98.25
2023-01-08T07:12:00.607Z,98.27
2023-01-08T07:14:33.035Z,98.22
2023-01-08T07:17:02.821Z,98.05
2023-01-08T07:19:32.568Z,98.42
2023-01-08T07:22:05.425Z,98.43
2023-01-08T07:24:35.271Z,98.27
2023-01-08T07:27:05.334Z,98.20
2023-01-08T07:29:37.783Z,98.64
2023-01-08T07:32:07.922Z,98.34
2023-01-08T07:34:37.719Z,98.14
2023-01-08T07:37:07.595Z,98.16
2023-01-08T07:39:37.487Z,98.00
2023-01-08T07:42:07.642Z,98.09
2023-01-08T07:44:40.112Z,98.58
2023-01-08T07:47:10.256Z,99.10
2023-01-08T07:49:40.100Z,99.59
2023-01-08T07:52:10.014Z,99.52
2023-01-08T07:54:39.771Z,99.71
2023-01-08T07:57:09.878Z,100.00
2023-01-08T07:59:42.347Z,100.00
2023-01-08T08:02:14.026Z,100.00
2023-01-08T08:04:43.990Z,100.00
2023-01-08T08:07:19.295Z,100.00
2023-01-08T08:09:49.082Z,100.00
2023-01-08T08:12:18.938Z,100.00
2023-01-08T08:14:51.450Z,100.00
2023-01-08T08:17:21.463Z,100.00
2023-01-08T08:19:51.415Z,100.00
2023-01-08T08:22:21.242Z,100.00
2023-01-08T08:24:51.006Z,100.00
2023-01-08T08:27:20.849Z,100.00
2023-01-08T08:29:53.321Z,99.90
2023-01-08T08:32:23.064Z,99.86
2023-01-08T08:34:52.933Z,99.73
2023-01-08T08:37:22.766Z,100.00
2023-01-08T08:39:52.875Z,100.00
2023-01-08T08:42:22.719Z,100.00
2023-01-08T08:44:55.194Z,99.97
2023-01-08T08:47:27.350Z,100.00
2023-01-08T08:49:57.179Z,100.00
2023-01-08T08:52:26.996Z,100.00
2023-01-08T08:54:57.070Z,99.70
2023-01-08T08:57:27.065Z,99.79
2023-01-08T09:00:01.311Z,99.63
2023-01-08T09:02:32.058Z,99.56
2023-01-08T09:05:02.304Z,99.40
2023-01-08T09:07:32.216Z,99.40
2023-01-08T09:10:02.112Z,99.60
2023-01-08T09:12:31.979Z,99.32
2023-01-08T09:15:04.493Z,99.08
2023-01-08T09:17:34.355Z,99.03
2023-01-08T09:20:04.165Z,99.26
2023-01-08T09:22:34.342Z,98.95
2023-01-08T09:25:04.186Z,98.80
2023-01-08T09:27:33.989Z,98.59
2023-01-08T09:30:07.138Z,97.96
2023-01-08T09:32:36.963Z,98.47
2023-01-08T09:35:07.262Z,98.50
2023-01-08T09:37:37.320Z,98.14
2023-01-08T09:40:07.963Z,98.00
2023-01-08T09:42:37.944Z,98.19
2023-01-08T09:45:19.551Z,98.60
2023-01-08T09:47:49.527Z,98.28
2023-01-08T09:50:19.496Z,98.41
2023-01-08T09:52:52.356Z,97.78
2023-01-08T09:55:22.642Z,97.91
2023-01-08T09:57:52.679Z,98.15
2023-01-08T10:00:29.420Z,98.08
2023-01-08T10:02:59.740Z,98.21
2023-01-08T10:05:30.536Z,98.02
2023-01-08T10:08:00.622Z,97.79
2023-01-08T10:10:33.486Z,97.90
2023-01-08T10:13:03.678Z,97.45
2023-01-08T10:15:36.770Z,97.97
2023-01-08T10:18:09.478Z,97.98
2023-01-08T10:20:39.803Z,97.90
2023-01-08T10:23:15.629Z,97.80
2023-01-08T10:25:54.251Z,97.47
2023-01-08T10:28:26.100Z,97.58
2023-01-08T10:31:07.457Z,97.34
2023-01-08T10:33:43.918Z,97.10
2023-01-08T10:36:17.914Z,97.06
2023-01-08T10:38:54.202Z,97.13
2023-01-08T10:41:25.282Z,96.56
2023-01-08T10:44:00.531Z,96.54
2023-01-08T10:46:40.757Z,96.91
2023-01-08T10:49:18.907Z,94.75
2023-01-08T10:51:53.724Z,95.39
2023-01-08T10:54:38.547Z,94.63
2023-01-08T10:57:23.495Z,95.13
2023-01-08T10:59:54.428Z,95.71
2023-01-08T11:02:35.309Z,95.24
2023-01-08T11:05:11.642Z,95.38
2023-01-08T11:07:42.932Z,94.66
2023-01-08T11:10:26.029Z,94.52
2023-01-08T11:13:00.950Z,94.39
2023-01-08T11:15:34.189Z,94.50
2023-01-08T11:18:19.488Z,93.77
2023-01-08T11:20:49.931Z,93.51
2023-01-08T11:23:23.408Z,93.81
2023-01-08T11:26:04.200Z,94.03
2023-01-08T11:28:47.145Z,93.58
2023-01-08T11:31:22.237Z,93.13
2023-01-08T11:34:01.810Z,92.47
2023-01-08T11:36:36.466Z,93.09
2023-01-08T11:39:13.490Z,93.73
2023-01-08T11:42:04.860Z,93.39
2023-01-08T11:44:48.182Z,93.55
2023-01-08T11:47:30.417Z,94.02
2023-01-08T11:50:17.625Z,94.30
2023-01-08T11:53:20.891Z,94.50
2023-01-08T11:55:59.085Z,95.14
2023-01-08T11:58:43.893Z,95.60
2023-01-08T12:01:34.231Z,95.54
2023-01-08T12:04:30.957Z,96.04
2023-01-08T12:07:12.187Z,96.79
2023-01-08T12:09:46.386Z,98.13
2023-01-08T12:12:41.166Z,98.85
2023-01-08T12:15:21.174Z,99.53
2023-01-08T12:18:08.624Z,98.60
2023-01-08T12:20:43.090Z,99.05
2023-01-08T12:23:28.728Z,99.48
2023-01-08T12:26:12.449Z,99.62
2023-01-08T12:29:13.552Z,99.83
2023-01-08T12:32:04.948Z,100.00
2023-01-08T12:34:48.824Z,100.00
2023-01-08T12:37:23.958Z,99.35
2023-01-08T12:40:04.115Z,99.41
2023-01-08T12:42:36.466Z,99.14
2023-01-08T12:45:10.917Z,99.67
2023-01-08T12:47:41.919Z,99.42
2023-01-08T12:50:28.605Z,99.55
2023-01-08T12:53:03.620Z,99.27
2023-01-08T12:55:47.012Z,98.11
2023-01-08T12:58:31.679Z,98.86
2023-01-08T13:01:11.990Z,98.46
2023-01-08T13:03:42.340Z,98.98
2023-01-08T13:06:15.782Z,98.79
2023-01-08T13:08:51.421Z,98.48
2023-01-08T13:11:35.180Z,97.64
2023-01-08T13:14:07.496Z,98.00
2023-01-08T13:16:41.861Z,97.74
2023-01-08T13:19:28.168Z,97.36
2023-01-08T13:22:00.219Z,97.21
2023-01-08T13:24:35.880Z,96.35
2023-01-08T13:27:31.223Z,96.85
2023-01-08T13:30:02.219Z,97.25
2023-01-08T13:32:47.871Z,96.78
2023-01-08T13:35:29.029Z,96.28
2023-01-08T13:38:17.165Z,95.72
2023-01-08T13:40:56.856Z,95.50
2023-01-08T13:43:33.216Z,96.22
2023-01-08T13:46:16.770Z,95.39
2023-01-08T13:48:53.272Z,95.60
2023-01-08T13:51:35.227Z,95.64
2023-01-08T13:54:16.624Z,95.14
2023-01-08T13:56:48.998Z,95.46
2023-01-08T13:59:37.157Z,95.37
2023-01-08T14:02:07.777Z,95.80
2023-01-08T14:04:37.683Z,95.84
2023-01-08T14:07:17.502Z,95.36
2023-01-08T14:09:47.368Z,94.53
2023-01-08T14:12:20.512Z,94.14
2023-01-08T14:14:57.258Z,94.25
2023-01-08T14:17:32.711Z,93.41
2023-01-08T14:20:03.009Z,94.12
2023-01-08T14:22:36.032Z,94.20
2023-01-08T14:25:08.567Z,93.78
2023-01-08T14:27:38.419Z,93.98
2023-01-08T14:30:25.221Z,93.38
2023-01-08T14:32:56.169Z,93.75
2023-01-08T14:35:32.791Z,93.48
2023-01-08T14:38:05.818Z,93.24
2023-01-08T14:40:39.631Z,92.39
2023-01-08T14:43:15.755Z,92.75
2023-01-08T14:45:55.948Z,92.27
2023-01-08T14:48:28.496Z,92.43
2023-01-08T14:51:07.337Z,92.08
2023-01-08T14:53:39.454Z,92.30
2023-01-08T14:56:10.337Z,92.69
2023-01-08T14:58:43.307Z,92.57
2023-01-08T15:01:23.011Z,91.97
2023-01-08T15:04:07.667Z,92.18
2023-01-08T15:06:37.427Z,91.86
2023-01-08T15:09:26.044Z,91.17
2023-01-08T15:11:58.455Z,92.05
2023-01-08T15:14:31.124Z,91.79
2023-01-08T15:17:12.129Z,91.31
2023-01-08T15:19:48.499Z,91.95
2023-01-08T15:22:22.928Z,91.69
2023-01-08T15:25:01.152Z,91.72
2023-01-08T15:27:34.494Z,92.14
2023-01-08T15:30:05.027Z,92.53
2023-01-08T15:32:40.167Z,92.25
2023-01-08T15:35:17.691Z,92.13
2023-01-08T15:37:48.085Z,92.55
2023-01-08T15:40:18.156Z,92.31
2023-01-08T15:43:00.339Z,92.71
2023-01-08T15:45:32.606Z,92.43
2023-01-08T15:48:08.958Z,91.80
2023-01-08T15:50:40.665Z,92.38
2023-01-08T15:53:16.026Z,92.33
2023-01-08T15:55:47.031Z,92.59
2023-01-08T15:58:18.104Z,92.59
2023-01-08T16:00:49.455Z,91.99
2023-01-08T16:03:25.920Z,91.33
2023-01-08T16:05:55.753Z,92.01
2023-01-08T16:08:25.885Z,91.99
2023-01-08T16:10:56.017Z,92.02
2023-01-08T16:13:25.754Z,91.76
2023-01-08T16:15:55.556Z,91.51
2023-01-08T16:18:28.009Z,90.62
2023-01-08T16:21:03.198Z,90.99
2023-01-08T16:23:33.078Z,91.44
2023-01-08T16:26:02.966Z,91.17
2023-01-08T16:28:32.820Z,91.38
2023-01-08T16:31:02.754Z,90.86
2023-01-08T16:33:35.368Z,90.94
2023-01-08T16:36:07.426Z,90.90
2023-01-08T16:38:39.139Z,90.23
2023-01-08T16:41:09.461Z,90.57
2023-01-08T16:43:45.447Z,90.88
2023-01-08T16:46:18.171Z,90.42
2023-01-08T16:48:51.443Z,90.89
2023-01-08T16:51:21.427Z,90.85
2023-01-08T16:53:51.447Z,90.78
2023-01-08T16:56:21.266Z,90.81
2023-01-08T16:58:54.059Z,90.39
2023-01-08T17:01:24.068Z,90.91
2023-01-08T17:03:59.578Z,91.00
2023-01-08T17:06:31.266Z,91.18
2023-01-08T17:09:01.970Z,90.70
2023-01-08T17:11:32.391Z,90.62
2023-01-08T17:14:02.220Z,90.25
2023-01-08T17:16:32.280Z,90.50
2023-01-08T17:19:05.296Z,90.32
2023-01-08T17:21:36.256Z,90.90
2023-01-08T17:24:06.155Z,90.73
2023-01-08T17:26:36.277Z,90.51
2023-01-08T17:29:06.240Z,90.92
2023-01-08T17:31:40.303Z,91.21
2023-01-08T17:34:15.443Z,90.97
2023-01-08T17:36:45.413Z,91.42
2023-01-08T17:39:15.707Z,91.42
2023-01-08T17:41:57.902Z,91.46
2023-01-08T17:44:28.212Z,91.95
2023-01-08T17:46:58.285Z,91.91
2023-01-08T17:49:31.342Z,91.85
2023-01-08T17:52:01.282Z,91.88
2023-01-08T17:54:31.895Z,92.04
2023-01-08T17:57:01.726Z,91.99
2023-01-08T17:59:31.550Z,92.55
2023-01-08T18:02:01.737Z,92.29
2023-01-08T18:04:34.647Z,92.08
2023-01-08T18:07:04.555Z,92.15
2023-01-08T18:09:36.640Z,92.23
2023-01-08T18:12:06.985Z,92.38
2023-01-08T18:14:39.035Z,92.16
2023-01-08T18:17:09.137Z,92.28
2023-01-08T18:19:41.784Z,92.39
2023-01-08T18:22:11.717Z,92.43
2023-01-08T18:24:41.514Z,92.67
2023-01-08T18:27:11.699Z,92.61
2023-01-08T18:29:41.461Z,92.34
2023-01-08T18:32:11.264Z,92.77
2023-01-08T18:34:43.923Z,92.49
2023-01-08T18:37:13.689Z,92.88
2023-01-08T18:39:43.563Z,92.87
2023-01-08T18:42:28.920Z,92.86
2023-01-08T18:45:03.113Z,92.82
2023-01-08T18:47:33.909Z,92.95
2023-01-08T18:50:06.657Z,93.02
2023-01-08T18:52:36.431Z,93.12
2023-01-08T18:55:06.327Z,93.12
2023-01-08T18:57:36.083Z,93.14
2023-01-08T19:00:06.455Z,93.24
2023-01-08T19:02:36.453Z,93.17
2023-01-08T19:05:09.726Z,93.27
2023-01-08T19:07:41.516Z,93.32
2023-01-08T19:10:13.055Z,93.58
2023-01-08T19:12:42.897Z,93.74
2023-01-08T19:15:13.680Z,93.94
2023-01-08T19:17:43.498Z,93.72
2023-01-08T19:20:16.580Z,93.85
2023-01-08T19:22:46.448Z,94.20
2023-01-08T19:25:16.520Z,94.30
2023-01-08T19:27:46.347Z,94.20
2023-01-08T19:30:16.394Z,94.97
2023-01-08T19:32:46.462Z,94.90
2023-01-08T19:35:19.248Z,94.80
2023-01-08T19:37:49.011Z,95.17
2023-01-08T19:40:19.406Z,95.33
2023-01-08T19:43:01.672Z,95.20
2023-01-08T19:45:31.538Z,95.31
2023-01-08T19:48:01.674Z,95.33
2023-01-08T19:50:34.295Z,95.46
2023-01-08T19:53:04.290Z,95.68
2023-01-08T19:55:34.069Z,95.53
2023-01-08T19:58:03.929Z,95.57
2023-01-08T20:00:37.644Z,95.78
2023-01-08T20:03:08.401Z,95.77
2023-01-08T20:05:43.689Z,96.00
2023-01-08T20:08:13.495Z,96.01
2023-01-08T20:10:43.296Z,96.00
2023-01-08T20:13:13.140Z,96.15
2023-01-08T20:15:43.003Z,96.12
2023-01-08T20:18:13.060Z,96.06
2023-01-08T20:20:45.484Z,96.64
2023-01-08T20:23:15.337Z,96.56
2023-01-08T20:25:45.575Z,96.60
2023-01-08T20:28:15.368Z,96.62
2023-01-08T20:30:45.112Z,96.45
2023-01-08T20:33:17.600Z,97.02
2023-01-08T20:35:52.783Z,96.62
2023-01-08T20:38:22.760Z,96.49
2023-01-08T20:40:54.289Z,96.60
2023-01-08T20:43:24.057Z,96.42
2023-01-08T20:45:53.883Z,96.60
2023-01-08T20:48:23.712Z,96.15
2023-01-08T20:51:01.033Z,96.57
2023-01-08T20:53:31.632Z,96.17
2023-01-08T20:56:05.933Z,96.03
2023-01-08T20:58:36.167Z,96.56
2023-01-08T21:01:10.122Z,96.22
2023-01-08T21:03:40.723Z,96.50
2023-01-08T21:06:15.531Z,96.36
2023-01-08T21:08:46.556Z,96.70
2023-01-08T21:11:17.537Z,96.31
2023-01-08T21:13:47.492Z,96.54
2023-01-08T21:16:20.844Z,96.60
2023-01-08T21:18:51.875Z,96.72
2023-01-08T21:21:28.817Z,96.42
2023-01-08T21:23:59.827Z,96.67
2023-01-08T21:26:29.752Z,96.91
2023-01-08T21:29:00.305Z,96.63
2023-01-08T21:31:30.211Z,96.80
2023-01-08T21:34:01.681Z,96.77
2023-01-08T21:36:34.949Z,96.72
2023-01-08T21:39:05.121Z,96.84
2023-01-08T21:41:47.543Z,97.17
2023-01-08T21:44:31.946Z,96.92
2023-01-08T21:47:02.447Z,97.06
2023-01-08T21:49:32.436Z,96.94
2023-01-08T21:52:18.043Z,97.45
2023-01-08T21:54:47.790Z,97.65
2023-01-08T21:57:17.677Z,97.82
2023-01-08T21:59:47.467Z,98.03
2023-01-08T22:02:19.219Z,97.92
2023-01-08T22:04:49.318Z,98.02
2023-01-08T22:07:22.520Z,98.02
2023-01-08T22:09:52.651Z,98.38
2023-01-08T22:12:22.862Z,98.08
2023-01-08T22:14:54.830Z,98.38
2023-01-08T22:17:26.000Z,98.88
2023-01-08T22:19:58.268Z,99.29
2023-01-08T22:22:31.163Z,99.50
2023-01-08T22:25:00.911Z,99.52
2023-01-08T22:27:31.492Z,99.50
2023-01-08T22:30:01.278Z,99.67
2023-01-08T22:32:31.061Z,99.88
2023-01-08T22:35:00.912Z,100.00
2023-01-08T22:37:34.092Z,100.00
2023-01-08T22:40:03.932Z,100.00
2023-01-08T22:42:33.829Z,100.00
2023-01-08T22:45:03.722Z,100.00
2023-01-08T22:47:33.564Z,100.00
2023-01-08T22:50:03.239Z,100.00
2023-01-08T22:52:35.670Z,100.00
2023-01-08T22:55:05.500Z,100.00
2023-01-08T22:57:35.458Z,100.00
2023-01-08T23:00:05.899Z,100.00
2023-01-08T23:02:35.732Z,100.00
2023-01-08T23:05:06.066Z,100.00
2023-01-08T23:07:38.641Z,100.00
2023-01-08T23:10:10.002Z,100.00
2023-01-08T23:12:39.885Z,100.00
2023-01-08T23:15:11.266Z,100.00
2023-01-08T23:17:51.535Z,100.00
2023-01-08T23:20:24.994Z,100.00
2023-01-08T23:22:57.387Z,100.00
2023-01-08T23:25:28.241Z,100.00
2023-01-08T23:27:58.240Z,100.00
2023-01-08T23:30:31.431Z,100.00
2023-01-08T23:33:01.275Z,100.00
2023-01-08T23:35:31.051Z,100.00
2023-01-08T23:38:03.800Z,100.00
2023-01-08T23:40:33.615Z,100.00
2023-01-08T23:43:03.386Z,100.00
2023-01-08T23:45:33.121Z,100.00
2023-01-08T23:48:02.961Z,100.00
2023-01-08T23:50:32.800Z,100.00
2023-01-08T23:53:05.708Z,100.00
2023-01-08T23:55:36.024Z,100.00
2023-01-08T23:58:05.934Z,100.00
